sensor_id;sensor_type;location;lat;lon;timestamp;pressure;altitude;pressure_sealevel;temperature;humidity
13968;BME280;39536;52.198;9.920;2024-03-23T00:53:43;99989.94;;;8.82;100.00
13968;BME280;39536;52.198;9.920;2024-03-23T00:56:08;99980.88;;;8.94;100.00
13968;BME280;39536;52.198;9.920;2024-03-23T00:58:35;99981.66;;;8.96;100.00
13968;BME280;39536;52.198;9.920;2024-03-23T01:01:00;99974.47;;;9.04;100.00
13968;BME280;39536;52.198;9.920;2024-03-23T01:03:28;99976.03;;;9.08;100.00
13968;BME280;39536;52.198;9.920;2024-03-23T01:05:54;99973.63;;;9.04;100.00
13968;BME280;39536;52.198;9.920;2024-03-23T01:08:22;99973.53;;;8.82;100.00
13968;BME280;39536;52.198;9.920;2024-03-23T01:10:54;99960.47;;;8.83;100.00
13968;BME280;39536;52.198;9.920;2024-03-23T01:13:20;99957.28;;;9.00;100.00
13968;BME280;39536;52.198;9.920;2024-03-23T01:15:48;99947.44;;;9.10;100.00
13968;BME280;39536;52.198;9.920;2024-03-23T01:18:15;99945.16;;;9.24;100.00
13968;BME280;39536;52.198;9.920;2024-03-23T01:20:40;99941.31;;;9.34;100.00
13968;BME280;39536;52.198;9.920;2024-03-23T01:23:07;99940.97;;;9.43;100.00
13968;BME280;39536;52.198;9.920;2024-03-23T01:25:34;99937.41;;;9.46;100.00
13968;BME280;39536;52.198;9.920;2024-03-23T01:28:00;99938.97;;;9.50;100.00
13968;BME280;39536;52.198;9.920;2024-03-23T01:30:26;99936.34;;;9.52;100.00
13968;BME280;39536;52.198;9.920;2024-03-23T01:32:52;99926.63;;;9.57;100.00
13968;BME280;39536;52.198;9.920;2024-03-23T01:35:18;99929.25;;;9.55;100.00
13968;BME280;39536;52.198;9.920;2024-03-23T01:37:44;99921.53;;;9.54;100.00
13968;BME280;39536;52.198;9.920;2024-03-23T01:40:11;99923.75;;;9.41;100.00
13968;BME280;39536;52.198;9.920;2024-03-23T01:42:40;99923.56;;;9.22;100.00
13968;BME280;39536;52.198;9.920;2024-03-23T01:45:08;99921.03;;;9.20;100.00
13968;BME280;39536;52.198;9.920;2024-03-23T01:47:35;99924.47;;;9.21;100.00
13968;BME280;39536;52.198;9.920;2024-03-23T01:50:01;99921.03;;;9.20;100.00
13968;BME280;39536;52.198;9.920;2024-03-23T01:52:27;99909.38;;;9.31;100.00
13968;BME280;39536;52.198;9.920;2024-03-23T01:54:53;99912.06;;;9.29;100.00
13968;BME280;39536;52.198;9.920;2024-03-23T01:57:20;99905.44;;;9.20;100.00
13968;BME280;39536;52.198;9.920;2024-03-23T01:59:47;99905.22;;;9.27;100.00
13968;BME280;39536;52.198;9.920;2024-03-23T02:02:14;99897.34;;;9.28;100.00
13968;BME280;39536;52.198;9.920;2024-03-23T02:04:39;99891.19;;;9.31;100.00
13968;BME280;39536;52.198;9.920;2024-03-23T02:07:06;99892.72;;;9.36;100.00
13968;BME280;39536;52.198;9.920;2024-03-23T02:09:33;99889.28;;;9.36;100.00
13968;BME280;39536;52.198;9.920;2024-03-23T02:12:01;99878.66;;;9.18;100.00
13968;BME280;39536;52.198;9.920;2024-03-23T02:14:27;99882.25;;;9.16;100.00
13968;BME280;39536;52.198;9.920;2024-03-23T02:16:55;99874.69;;;9.10;100.00
13968;BME280;39536;52.198;9.920;2024-03-23T02:19:21;99876.03;;;9.20;100.00
13968;BME280;39536;52.198;9.920;2024-03-23T02:21:47;99873.91;;;9.30;100.00
13968;BME280;39536;52.198;9.920;2024-03-23T02:24:14;99870.53;;;9.28;100.00
13968;BME280;39536;52.198;9.920;2024-03-23T02:26:41;99877.25;;;9.33;100.00
13968;BME280;39536;52.198;9.920;2024-03-23T02:29:06;99865.16;;;9.32;100.00
13968;BME280;39536;52.198;9.920;2024-03-23T02:31:34;99862.38;;;9.37;100.00
13968;BME280;39536;52.198;9.920;2024-03-23T02:37:21;99851.00;;;9.39;100.00
13968;BME280;39536;52.198;9.920;2024-03-23T02:39:48;99852.69;;;9.40;100.00
13968;BME280;39536;52.198;9.920;2024-03-23T02:42:14;99847.38;;;9.43;100.00
13968;BME280;39536;52.198;9.920;2024-03-23T02:44:42;99849.16;;;9.43;100.00
13968;BME280;39536;52.198;9.920;2024-03-23T02:47:08;99843.09;;;9.42;100.00
13968;BME280;39536;52.198;9.920;2024-03-23T02:49:34;99841.34;;;9.43;100.00
13968;BME280;39536;52.198;9.920;2024-03-23T02:52:00;99838.81;;;9.41;100.00
13968;BME280;39536;52.198;9.920;2024-03-23T02:54:26;99831.13;;;9.38;100.00
13968;BME280;39536;52.198;9.920;2024-03-23T02:56:54;99832.81;;;9.39;100.00
13968;BME280;39536;52.198;9.920;2024-03-23T02:59:19;99832.81;;;9.39;100.00
13968;BME280;39536;52.198;9.920;2024-03-23T03:01:46;99823.34;;;9.38;100.00
13968;BME280;39536;52.198;9.920;2024-03-23T03:04:11;99826.09;;;9.34;100.00
13968;BME280;39536;52.198;9.920;2024-03-23T03:06:38;99829.78;;;9.28;100.00
13968;BME280;39536;52.198;9.920;2024-03-23T03:09:03;99818.78;;;9.21;100.00
13968;BME280;39536;52.198;9.920;2024-03-23T03:11:30;99821.56;;;9.17;100.00
13968;BME280;39536;52.198;9.920;2024-03-23T03:13:57;99815.66;;;9.13;100.00
13968;BME280;39536;52.198;9.920;2024-03-23T03:16:25;99814.69;;;9.16;100.00
13968;BME280;39536;52.198;9.920;2024-03-23T03:18:51;99813.06;;;9.13;100.00
13968;BME280;39536;52.198;9.920;2024-03-23T03:21:18;99809.72;;;9.10;100.00
13968;BME280;39536;52.198;9.920;2024-03-23T03:23:44;99808.84;;;9.09;100.00
13968;BME280;39536;52.198;9.920;2024-03-23T03:26:11;99812.44;;;9.07;100.00
13968;BME280;39536;52.198;9.920;2024-03-23T03:28:37;99802.78;;;9.10;100.00
13968;BME280;39536;52.198;9.920;2024-03-23T03:31:05;99804.56;;;9.08;100.00
13968;BME280;39536;52.198;9.920;2024-03-23T03:33:30;99811.47;;;9.09;100.00
13968;BME280;39536;52.198;9.920;2024-03-23T03:35:57;99813.91;;;9.14;100.00
13968;BME280;39536;52.198;9.920;2024-03-23T03:38:22;99815.19;;;9.02;100.00
13968;BME280;39536;52.198;9.920;2024-03-23T03:40:49;99810.47;;;8.90;100.00
13968;BME280;39536;52.198;9.920;2024-03-23T03:43:15;99816.38;;;8.93;100.00
13968;BME280;39536;52.198;9.920;2024-03-23T03:45:41;99816.47;;;8.92;100.00
13968;BME280;39536;52.198;9.920;2024-03-23T03:48:08;99816.03;;;9.02;100.00
13968;BME280;39536;52.198;9.920;2024-03-23T03:50:35;99816.63;;;9.11;100.00
13968;BME280;39536;52.198;9.920;2024-03-23T03:53:00;99812.50;;;9.05;100.00
13968;BME280;39536;52.198;9.920;2024-03-23T03:55:27;99805.81;;;8.76;100.00
13968;BME280;39536;52.198;9.920;2024-03-23T03:57:53;99803.56;;;8.65;100.00
13968;BME280;39536;52.198;9.920;2024-03-23T04:00:19;99805.97;;;8.21;100.00
13968;BME280;39536;52.198;9.920;2024-03-23T04:02:45;99808.56;;;8.21;100.00
13968;BME280;39536;52.198;9.920;2024-03-23T04:05:13;99800.25;;;8.12;100.00
13968;BME280;39536;52.198;9.920;2024-03-23T04:07:38;99800.44;;;8.07;100.00
13968;BME280;39536;52.198;9.920;2024-03-23T04:10:06;99802.25;;;8.03;100.00
13968;BME280;39536;52.198;9.920;2024-03-23T04:12:33;99796.31;;;8.01;100.00
13968;BME280;39536;52.198;9.920;2024-03-23T04:14:59;99797.59;;;7.88;100.00
13968;BME280;39536;52.198;9.920;2024-03-23T04:17:26;99791.53;;;7.62;100.00
13968;BME280;39536;52.198;9.920;2024-03-23T04:19:57;99790.25;;;7.76;100.00
13968;BME280;39536;52.198;9.920;2024-03-23T04:22:24;99793.97;;;7.67;100.00
13968;BME280;39536;52.198;9.920;2024-03-23T04:24:52;99786.41;;;7.61;100.00
13968;BME280;39536;52.198;9.920;2024-03-23T04:27:18;99781.06;;;7.66;100.00
13968;BME280;39536;52.198;9.920;2024-03-23T04:29:46;99782.78;;;7.67;100.00
13968;BME280;39536;52.198;9.920;2024-03-23T04:32:13;99789.69;;;7.66;100.00
13968;BME280;39536;52.198;9.920;2024-03-23T04:34:40;99780.09;;;7.70;100.00
13968;BME280;39536;52.198;9.920;2024-03-23T04:37:05;99781.88;;;7.93;100.00
13968;BME280;39536;52.198;9.920;2024-03-23T04:39:33;99771.41;;;7.96;100.00
13968;BME280;39536;52.198;9.920;2024-03-23T04:42:00;99778.56;;;7.89;100.00
13968;BME280;39536;52.198;9.920;2024-03-23T04:44:28;99768.09;;;7.92;100.00
13968;BME280;39536;52.198;9.920;2024-03-23T04:46:54;99762.50;;;7.78;100.00
13968;BME280;39536;52.198;9.920;2024-03-23T04:49:21;99765.84;;;7.81;100.00
13968;BME280;39536;52.198;9.920;2024-03-23T04:51:47;99761.56;;;7.80;100.00
13968;BME280;39536;52.198;9.920;2024-03-23T04:54:14;99758.97;;;7.54;100.00
13968;BME280;39536;52.198;9.920;2024-03-23T04:56:42;99756.69;;;7.71;100.00
13968;BME280;39536;52.198;9.920;2024-03-23T04:59:07;99754.41;;;7.62;100.00
13968;BME280;39536;52.198;9.920;2024-03-23T05:01:34;99751.09;;;7.57;100.00
13968;BME280;39536;52.198;9.920;2024-03-23T05:04:00;99753.69;;;7.30;100.00
13968;BME280;39536;52.198;9.920;2024-03-23T05:06:27;99762.97;;;7.11;100.00
13968;BME280;39536;52.198;9.920;2024-03-23T05:08:54;99758.44;;;7.17;100.00
13968;BME280;39536;52.198;9.920;2024-03-23T05:11:20;99752.03;;;7.01;100.00
13968;BME280;39536;52.198;9.920;2024-03-23T05:13:47;99752.06;;;7.00;100.00
13968;BME280;39536;52.198;9.920;2024-03-23T05:16:14;99751.25;;;6.98;100.00
13968;BME280;39536;52.198;9.920;2024-03-23T05:18:39;99740.03;;;6.99;100.00
13968;BME280;39536;52.198;9.920;2024-03-23T05:21:06;99737.94;;;7.10;100.00
13968;BME280;39536;52.198;9.920;2024-03-23T05:23:31;99737.63;;;7.21;100.00
13968;BME280;39536;52.198;9.920;2024-03-23T05:25:58;99734.28;;;7.44;100.00
13968;BME280;39536;52.198;9.920;2024-03-23T05:28:23;99728.84;;;7.25;100.00
13968;BME280;39536;52.198;9.920;2024-03-23T05:30:52;99731.09;;;7.35;100.00
13968;BME280;39536;52.198;9.920;2024-03-23T05:33:18;99741.09;;;7.20;100.00
13968;BME280;39536;52.198;9.920;2024-03-23T05:35:45;99749.78;;;7.45;100.00
13968;BME280;39536;52.198;9.920;2024-03-23T05:38:11;99751.84;;;7.34;100.00
13968;BME280;39536;52.198;9.920;2024-03-23T05:40:37;99757.97;;;7.31;100.00
13968;BME280;39536;52.198;9.920;2024-03-23T05:43:05;99761.94;;;7.43;100.00
13968;BME280;39536;52.198;9.920;2024-03-23T05:45:32;99759.50;;;7.38;100.00
13968;BME280;39536;52.198;9.920;2024-03-23T05:47:59;99753.25;;;7.44;100.00
13968;BME280;39536;52.198;9.920;2024-03-23T05:50:25;99750.75;;;7.41;100.00
13968;BME280;39536;52.198;9.920;2024-03-23T05:52:51;99749.59;;;7.51;100.00
13968;BME280;39536;52.198;9.920;2024-03-23T05:55:18;99756.63;;;7.48;100.00
13968;BME280;39536;52.198;9.920;2024-03-23T05:57:43;99757.22;;;7.28;100.00
13968;BME280;39536;52.198;9.920;2024-03-23T06:00:11;99760.31;;;7.12;100.00
13968;BME280;39536;52.198;9.920;2024-03-23T06:02:41;99763.41;;;6.96;100.00
13968;BME280;39536;52.198;9.920;2024-03-23T06:05:10;99744.50;;;6.93;100.00
13968;BME280;39536;52.198;9.920;2024-03-23T06:07:36;99763.78;;;6.83;100.00
13968;BME280;39536;52.198;9.920;2024-03-23T06:10:03;99759.69;;;6.76;100.00
13968;BME280;39536;52.198;9.920;2024-03-23T06:12:29;99750.09;;;6.80;100.00
13968;BME280;39536;52.198;9.920;2024-03-23T06:14:55;99751.72;;;6.54;100.00
13968;BME280;39536;52.198;9.920;2024-03-23T06:17:21;99759.56;;;6.51;100.00
13968;BME280;39536;52.198;9.920;2024-03-23T06:19:48;99754.56;;;6.45;100.00
13968;BME280;39536;52.198;9.920;2024-03-23T06:22:15;99756.88;;;6.54;100.00
13968;BME280;39536;52.198;9.920;2024-03-23T06:24:42;99760.13;;;6.61;100.00
13968;BME280;39536;52.198;9.920;2024-03-23T06:27:07;99749.34;;;6.76;100.00
13968;BME280;39536;52.198;9.920;2024-03-23T06:29:34;99745.59;;;6.85;100.00
13968;BME280;39536;52.198;9.920;2024-03-23T06:32:00;99746.94;;;6.70;100.00
13968;BME280;39536;52.198;9.920;2024-03-23T06:34:27;99741.97;;;6.92;100.00
13968;BME280;39536;52.198;9.920;2024-03-23T06:36:52;99746.88;;;7.00;100.00
13968;BME280;39536;52.198;9.920;2024-03-23T06:39:20;99748.75;;;7.23;100.00
13968;BME280;39536;52.198;9.920;2024-03-23T06:41:51;99749.53;;;7.26;100.00
13968;BME280;39536;52.198;9.920;2024-03-23T06:44:18;99748.81;;;7.21;100.00
13968;BME280;39536;52.198;9.920;2024-03-23T06:46:44;99744.63;;;7.44;100.00
13968;BME280;39536;52.198;9.920;2024-03-23T06:49:11;99744.34;;;7.53;100.00
13968;BME280;39536;52.198;9.920;2024-03-23T06:51:36;99745.88;;;7.58;100.00
13968;BME280;39536;52.198;9.920;2024-03-23T06:54:03;99752.28;;;7.48;100.00
13968;BME280;39536;52.198;9.920;2024-03-23T06:56:30;99756.19;;;7.33;100.00
13968;BME280;39536;52.198;9.920;2024-03-23T06:58:57;99748.16;;;7.41;100.00
13968;BME280;39536;52.198;9.920;2024-03-23T07:01:23;99747.59;;;7.33;100.00
13968;BME280;39536;52.198;9.920;2024-03-23T07:03:49;99750.13;;;7.34;100.00
13968;BME280;39536;52.198;9.920;2024-03-23T07:06:15;99750.00;;;7.37;100.00
13968;BME280;39536;52.198;9.920;2024-03-23T07:08:41;99744.84;;;7.37;100.00
13968;BME280;39536;52.198;9.920;2024-03-23T07:11:07;99754.06;;;7.46;100.00
13968;BME280;39536;52.198;9.920;2024-03-23T07:13:35;99753.06;;;7.24;100.00
13968;BME280;39536;52.198;9.920;2024-03-23T07:16:01;99754.66;;;7.28;100.00
13968;BME280;39536;52.198;9.920;2024-03-23T07:18:27;99752.56;;;7.39;100.00
13968;BME280;39536;52.198;9.920;2024-03-23T07:20:54;99742.41;;;7.33;100.00
13968;BME280;39536;52.198;9.920;2024-03-23T07:23:21;99735.41;;;7.08;100.00
13968;BME280;39536;52.198;9.920;2024-03-23T07:25:56;99746.03;;;7.27;100.00
13968;BME280;39536;52.198;9.920;2024-03-23T07:28:22;99737.25;;;7.58;100.00
13968;BME280;39536;52.198;9.920;2024-03-23T07:31:01;99741.00;;;7.76;100.00
13968;BME280;39536;52.198;9.920;2024-03-23T07:33:27;99743.03;;;7.91;100.00
13968;BME280;39536;52.198;9.920;2024-03-23T07:35:53;99744.56;;;7.97;100.00
13968;BME280;39536;52.198;9.920;2024-03-23T07:38:20;99752.31;;;7.98;100.00
13968;BME280;39536;52.198;9.920;2024-03-23T07:40:45;99755.66;;;8.02;100.00
13968;BME280;39536;52.198;9.920;2024-03-23T07:43:13;99758.03;;;8.08;100.00
13968;BME280;39536;52.198;9.920;2024-03-23T07:45:38;99761.75;;;8.01;100.00
13968;BME280;39536;52.198;9.920;2024-03-23T07:48:07;99756.16;;;7.86;100.00
13968;BME280;39536;52.198;9.920;2024-03-23T07:50:32;99752.06;;;7.54;100.00
13968;BME280;39536;52.198;9.920;2024-03-23T07:52:59;99750.66;;;7.71;100.00
13968;BME280;39536;52.198;9.920;2024-03-23T07:55:24;99750.16;;;7.59;100.00
13968;BME280;39536;52.198;9.920;2024-03-23T07:57:51;99751.00;;;7.60;100.00
13968;BME280;39536;52.198;9.920;2024-03-23T08:00:17;99745.28;;;7.77;100.00
13968;BME280;39536;52.198;9.920;2024-03-23T08:02:44;99736.56;;;7.53;100.00
13968;BME280;39536;52.198;9.920;2024-03-23T08:05:11;99746.72;;;7.59;100.00
13968;BME280;39536;52.198;9.920;2024-03-23T08:07:37;99743.50;;;7.52;100.00
13968;BME280;39536;52.198;9.920;2024-03-23T08:10:04;99744.84;;;7.64;100.00
13968;BME280;39536;52.198;9.920;2024-03-23T08:12:30;99741.94;;;7.73;100.00
13968;BME280;39536;52.198;9.920;2024-03-23T08:14:56;99741.31;;;7.67;100.00
13968;BME280;39536;52.198;9.920;2024-03-23T08:17:23;99740.44;;;7.66;100.00
13968;BME280;39536;52.198;9.920;2024-03-23T08:19:48;99745.88;;;7.32;100.00
13968;BME280;39536;52.198;9.920;2024-03-23T08:22:16;99747.50;;;7.08;100.00
13968;BME280;39536;52.198;9.920;2024-03-23T08:24:42;99738.06;;;7.33;100.00
13968;BME280;39536;52.198;9.920;2024-03-23T08:27:08;99741.47;;;7.35;100.00
13968;BME280;39536;52.198;9.920;2024-03-23T08:29:34;99739.22;;;7.51;100.00
13968;BME280;39536;52.198;9.920;2024-03-23T08:32:00;99741.56;;;7.84;100.00
13968;BME280;39536;52.198;9.920;2024-03-23T08:34:26;99751.41;;;7.99;100.00
13968;BME280;39536;52.198;9.920;2024-03-23T08:36:53;99745.91;;;8.08;100.00
13968;BME280;39536;52.198;9.920;2024-03-23T08:39:20;99750.66;;;8.21;100.00
13968;BME280;39536;52.198;9.920;2024-03-23T08:41:47;99752.31;;;8.23;100.00
13968;BME280;39536;52.198;9.920;2024-03-23T08:44:13;99752.97;;;8.28;100.00
13968;BME280;39536;52.198;9.920;2024-03-23T08:46:39;99750.19;;;8.09;100.00
13968;BME280;39536;52.198;9.920;2024-03-23T08:49:05;99755.16;;;8.16;100.00
13968;BME280;39536;52.198;9.920;2024-03-23T08:51:31;99751.91;;;8.10;100.00
13968;BME280;39536;52.198;9.920;2024-03-23T08:53:57;99751.78;;;7.89;100.00
13968;BME280;39536;52.198;9.920;2024-03-23T08:56:25;99743.81;;;7.95;100.00
13968;BME280;39536;52.198;9.920;2024-03-23T08:58:50;99759.25;;;7.98;100.00
13968;BME280;39536;52.198;9.920;2024-03-23T09:01:17;99767.38;;;8.12;100.00
13968;BME280;39536;52.198;9.920;2024-03-23T09:03:42;99757.59;;;8.20;100.00
13968;BME280;39536;52.198;9.920;2024-03-23T09:06:10;99743.09;;;8.40;100.00
13968;BME280;39536;52.198;9.920;2024-03-23T09:08:36;99766.91;;;8.26;100.00
13968;BME280;39536;52.198;9.920;2024-03-23T09:11:07;99762.38;;;8.07;100.00
13968;BME280;39536;52.198;9.920;2024-03-23T09:13:34;99755.84;;;8.21;100.00
13968;BME280;39536;52.198;9.920;2024-03-23T09:16:01;99751.97;;;8.32;100.00
13968;BME280;39536;52.198;9.920;2024-03-23T09:18:27;99751.03;;;8.35;100.00
13968;BME280;39536;52.198;9.920;2024-03-23T09:20:53;99750.44;;;8.27;100.00
13968;BME280;39536;52.198;9.920;2024-03-23T09:23:20;99751.16;;;8.07;100.00
13968;BME280;39536;52.198;9.920;2024-03-23T09:25:46;99757.84;;;7.62;100.00
13968;BME280;39536;52.198;9.920;2024-03-23T09:28:12;99767.31;;;7.63;100.00
13968;BME280;39536;52.198;9.920;2024-03-23T09:30:40;99767.13;;;7.70;100.00
13968;BME280;39536;52.198;9.920;2024-03-23T09:33:07;99784.06;;;7.80;100.00
13968;BME280;39536;52.198;9.920;2024-03-23T09:35:36;99771.78;;;7.85;100.00
13968;BME280;39536;52.198;9.920;2024-03-23T09:38:02;99768.84;;;8.19;100.00
13968;BME280;39536;52.198;9.920;2024-03-23T09:40:29;99775.22;;;8.36;100.00
13968;BME280;39536;52.198;9.920;2024-03-23T09:42:54;99768.72;;;8.49;100.00
13968;BME280;39536;52.198;9.920;2024-03-23T09:45:24;99761.13;;;8.43;100.00
13968;BME280;39536;52.198;9.920;2024-03-23T09:47:53;99777.56;;;8.67;100.00
13968;BME280;39536;52.198;9.920;2024-03-23T09:50:21;99769.31;;;8.55;100.00
13968;BME280;39536;52.198;9.920;2024-03-23T09:52:46;99769.50;;;8.26;100.00
13968;BME280;39536;52.198;9.920;2024-03-23T09:55:13;99753.88;;;8.52;100.00
13968;BME280;39536;52.198;9.920;2024-03-23T09:57:39;99742.06;;;8.44;100.00
13968;BME280;39536;52.198;9.920;2024-03-23T10:00:06;99756.25;;;8.33;100.00
13968;BME280;39536;52.198;9.920;2024-03-23T10:02:34;99762.19;;;8.12;100.00
13968;BME280;39536;52.198;9.920;2024-03-23T10:05:02;99762.31;;;8.09;100.00
13968;BME280;39536;52.198;9.920;2024-03-23T10:07:28;99748.34;;;8.13;100.00
13968;BME280;39536;52.198;9.920;2024-03-23T10:09:54;99754.50;;;8.34;100.00
13968;BME280;39536;52.198;9.920;2024-03-23T10:12:20;99759.50;;;8.40;100.00
13968;BME280;39536;52.198;9.920;2024-03-23T10:14:47;99750.34;;;8.53;100.00
13968;BME280;39536;52.198;9.920;2024-03-23T10:17:14;99748.31;;;8.85;100.00
13968;BME280;39536;52.198;9.920;2024-03-23T10:19:43;99749.66;;;9.17;100.00
13968;BME280;39536;52.198;9.920;2024-03-23T10:22:13;99735.41;;;9.06;100.00
13968;BME280;39536;52.198;9.920;2024-03-23T10:24:39;99733.41;;;8.90;100.00
13968;BME280;39536;52.198;9.920;2024-03-23T10:27:06;99737.38;;;8.53;100.00
13968;BME280;39536;52.198;9.920;2024-03-23T10:29:31;99727.41;;;8.43;100.00
13968;BME280;39536;52.198;9.920;2024-03-23T10:32:08;99725.91;;;8.36;100.00
13968;BME280;39536;52.198;9.920;2024-03-23T10:34:37;99731.06;;;8.61;100.00
13968;BME280;39536;52.198;9.920;2024-03-23T10:37:04;99721.56;;;9.05;100.00
13968;BME280;39536;52.198;9.920;2024-03-23T10:39:33;99728.72;;;9.42;100.00
13968;BME280;39536;52.198;9.920;2024-03-23T10:42:02;99725.91;;;9.27;100.00
13968;BME280;39536;52.198;9.920;2024-03-23T10:44:28;99713.56;;;9.54;100.00
13968;BME280;39536;52.198;9.920;2024-03-23T10:46:56;99713.19;;;10.23;100.00
13968;BME280;39536;52.198;9.920;2024-03-23T10:49:26;99704.88;;;10.54;100.00
13968;BME280;39536;52.198;9.920;2024-03-23T10:51:55;99699.22;;;10.63;100.00
13968;BME280;39536;52.198;9.920;2024-03-23T10:54:21;99711.06;;;10.51;100.00
13968;BME280;39536;52.198;9.920;2024-03-23T10:56:53;99729.31;;;9.49;100.00
13968;BME280;39536;52.198;9.920;2024-03-23T10:59:21;99736.47;;;9.00;100.00
13968;BME280;39536;52.198;9.920;2024-03-23T11:01:55;99742.94;;;8.44;100.00
13968;BME280;39536;52.198;9.920;2024-03-23T11:04:31;99725.34;;;8.27;100.00
13968;BME280;39536;52.198;9.920;2024-03-23T11:06:58;99740.56;;;8.13;100.00
13968;BME280;39536;52.198;9.920;2024-03-23T11:09:40;99734.66;;;8.56;100.00
13968;BME280;39536;52.198;9.920;2024-03-23T11:12:30;99726.34;;;8.48;100.00
13968;BME280;39536;52.198;9.920;2024-03-23T11:15:00;99734.28;;;8.67;100.00
13968;BME280;39536;52.198;9.920;2024-03-23T11:17:27;99716.50;;;9.02;100.00
13968;BME280;39536;52.198;9.920;2024-03-23T11:19:54;99709.50;;;9.04;100.00
13968;BME280;39536;52.198;9.920;2024-03-23T11:22:39;99706.28;;;9.19;100.00
13968;BME280;39536;52.198;9.920;2024-03-23T11:25:12;99700.22;;;9.61;100.00
13968;BME280;39536;52.198;9.920;2024-03-23T11:27:40;99709.31;;;9.71;100.00
13968;BME280;39536;52.198;9.920;2024-03-23T11:30:11;99706.44;;;9.98;100.00
13968;BME280;39536;52.198;9.920;2024-03-23T11:32:38;99688.19;;;9.79;100.00
13968;BME280;39536;52.198;9.920;2024-03-23T11:35:05;99713.03;;;9.66;100.00
13968;BME280;39536;52.198;9.920;2024-03-23T11:37:32;99721.59;;;9.47;100.00
13968;BME280;39536;52.198;9.920;2024-03-23T11:39:57;99735.16;;;9.12;100.00
13968;BME280;39536;52.198;9.920;2024-03-23T11:42:24;99743.00;;;9.32;100.00
13968;BME280;39536;52.198;9.920;2024-03-23T11:44:51;99736.44;;;9.01;100.00
13968;BME280;39536;52.198;9.920;2024-03-23T11:47:18;99724.63;;;8.71;100.00
13968;BME280;39536;52.198;9.920;2024-03-23T11:49:43;99733.59;;;8.62;100.00
13968;BME280;39536;52.198;9.920;2024-03-23T11:52:11;99720.09;;;8.29;100.00
13968;BME280;39536;52.198;9.920;2024-03-23T11:54:36;99728.81;;;8.51;100.00
13968;BME280;39536;52.198;9.920;2024-03-23T11:57:04;99728.06;;;8.71;100.00
13968;BME280;39536;52.198;9.920;2024-03-23T11:59:33;99728.84;;;8.73;100.00
13968;BME280;39536;52.198;9.920;2024-03-23T12:02:06;99720.00;;;8.79;100.00
13968;BME280;39536;52.198;9.920;2024-03-23T12:04:32;99721.31;;;9.11;100.00
13968;BME280;39536;52.198;9.920;2024-03-23T12:07:11;99720.03;;;9.21;100.00
13968;BME280;39536;52.198;9.920;2024-03-23T12:09:37;99700.00;;;9.45;100.00
13968;BME280;39536;52.198;9.920;2024-03-23T12:12:08;99705.72;;;9.74;100.00
13968;BME280;39536;52.198;9.920;2024-03-23T12:14:34;99707.19;;;9.81;100.00
13968;BME280;39536;52.198;9.920;2024-03-23T12:17:11;99725.28;;;9.42;100.00
13968;BME280;39536;52.198;9.920;2024-03-23T12:19:37;99774.19;;;8.65;100.00
13968;BME280;39536;52.198;9.920;2024-03-23T12:22:04;99782.94;;;7.87;100.00
13968;BME280;39536;52.198;9.920;2024-03-23T12:24:30;99797.06;;;6.96;100.00
13968;BME280;39536;52.198;9.920;2024-03-23T12:27:00;99764.59;;;6.24;100.00
13968;BME280;39536;52.198;9.920;2024-03-23T12:29:27;99775.88;;;6.22;100.00
13968;BME280;39536;52.198;9.920;2024-03-23T12:31:53;99770.59;;;6.27;100.00
13968;BME280;39536;52.198;9.920;2024-03-23T12:34:20;99771.53;;;6.54;100.00
13968;BME280;39536;52.198;9.920;2024-03-23T12:36:47;99761.03;;;6.88;100.00
13968;BME280;39536;52.198;9.920;2024-03-23T12:39:12;99761.69;;;7.23;100.00
13968;BME280;39536;52.198;9.920;2024-03-23T12:41:39;99761.00;;;7.46;100.00
13968;BME280;39536;52.198;9.920;2024-03-23T12:44:05;99763.50;;;7.47;100.00
13968;BME280;39536;52.198;9.920;2024-03-23T12:46:33;99767.22;;;7.40;100.00
13968;BME280;39536;52.198;9.920;2024-03-23T12:48:59;99741.66;;;7.29;100.00
13968;BME280;39536;52.198;9.920;2024-03-23T12:51:28;99767.03;;;7.18;100.00
13968;BME280;39536;52.198;9.920;2024-03-23T12:53:53;99783.75;;;7.08;100.00
13968;BME280;39536;52.198;9.920;2024-03-23T12:56:20;99770.38;;;7.22;100.00
13968;BME280;39536;52.198;9.920;2024-03-23T12:58:46;99785.22;;;7.16;100.00
13968;BME280;39536;52.198;9.920;2024-03-23T13:01:16;99804.97;;;6.91;100.00
13968;BME280;39536;52.198;9.920;2024-03-23T13:03:42;99829.97;;;6.30;100.00
13968;BME280;39536;52.198;9.920;2024-03-23T13:06:09;99832.97;;;5.78;100.00
13968;BME280;39536;52.198;9.920;2024-03-23T13:08:36;99829.34;;;5.50;100.00
13968;BME280;39536;52.198;9.920;2024-03-23T13:11:03;99801.31;;;5.69;100.00
13968;BME280;39536;52.198;9.920;2024-03-23T13:13:29;99776.88;;;5.82;100.00
13968;BME280;39536;52.198;9.920;2024-03-23T13:15:57;99767.25;;;5.89;100.00
13968;BME280;39536;52.198;9.920;2024-03-23T13:18:22;99757.69;;;6.25;100.00
13968;BME280;39536;52.198;9.920;2024-03-23T13:20:49;99771.66;;;6.79;100.00
13968;BME280;39536;52.198;9.920;2024-03-23T13:23:14;99763.72;;;6.85;100.00
13968;BME280;39536;52.198;9.920;2024-03-23T13:25:49;99764.69;;;7.10;100.00
13968;BME280;39536;52.198;9.920;2024-03-23T13:28:15;99747.31;;;7.67;100.00
13968;BME280;39536;52.198;9.920;2024-03-23T13:30:49;99749.53;;;7.78;100.00
13968;BME280;39536;52.198;9.920;2024-03-23T13:33:15;99740.09;;;7.77;100.00
13968;BME280;39536;52.198;9.920;2024-03-23T13:35:49;99744.94;;;7.61;100.00
13968;BME280;39536;52.198;9.920;2024-03-23T13:38:14;99749.88;;;7.42;100.00
13968;BME280;39536;52.198;9.920;2024-03-23T13:40:50;99752.66;;;7.62;100.00
13968;BME280;39536;52.198;9.920;2024-03-23T13:43:16;99746.59;;;7.63;100.00
13968;BME280;39536;52.198;9.920;2024-03-23T13:45:42;99751.41;;;7.74;100.00
13968;BME280;39536;52.198;9.920;2024-03-23T13:48:08;99750.25;;;7.56;100.00
13968;BME280;39536;52.198;9.920;2024-03-23T13:50:35;99750.34;;;7.80;100.00
13968;BME280;39536;52.198;9.920;2024-03-23T13:53:00;99748.81;;;7.99;100.00
13968;BME280;39536;52.198;9.920;2024-03-23T13:55:27;99757.00;;;8.12;100.00